createdAt,value
2018-03-22T00:00:01.022Z,97743.01
2018-03-22T00:02:29.315Z,97742.47
2018-03-22T00:04:58.384Z,97745.05
2018-03-22T00:07:26.811Z,97740.75
2018-03-22T00:09:55.225Z,97742.27
2018-03-22T00:12:24.427Z,97731.18
2018-03-22T00:14:52.745Z,97739.61
2018-03-22T00:17:21.173Z,97732.52
2018-03-22T00:19:49.670Z,97739.11
2018-03-22T00:22:29.870Z,97714.92
2018-03-22T00:24:58.170Z,97713.07
2018-03-22T00:27:26.560Z,97714.69
2018-03-22T00:29:54.939Z,97710.48
2018-03-22T00:32:25.179Z,97706.32
2018-03-22T00:34:56.961Z,97708.23
2018-03-22T00:37:25.491Z,97702.48
2018-03-22T00:39:54.209Z,97701.21
2018-03-22T00:42:22.518Z,97699.56
2018-03-22T00:44:50.875Z,97692.37
2018-03-22T00:47:19.234Z,97695.27
2018-03-22T00:49:49.344Z,97694.92
2018-03-22T00:52:19.496Z,97694.28
2018-03-22T00:54:47.854Z,97693.65
2018-03-22T00:57:16.207Z,97693.58
2018-03-22T00:59:44.586Z,97687.06
2018-03-22T01:02:15.547Z,97684.04
2018-03-22T01:04:44.111Z,97683.59
2018-03-22T01:07:14.123Z,97681.34
2018-03-22T01:09:44.334Z,97680.57
2018-03-22T01:12:14.690Z,97676.20
2018-03-22T01:14:47.170Z,97670.00
2018-03-22T01:17:15.617Z,97671.61
2018-03-22T01:19:43.910Z,97669.09
2018-03-22T01:22:12.285Z,97662.34
2018-03-22T01:24:41.499Z,97658.01
2018-03-22T01:27:12.920Z,97653.48
2018-03-22T01:29:42.454Z,97649.21
2018-03-22T01:32:11.068Z,97648.17
2018-03-22T01:34:39.386Z,97649.38
2018-03-22T01:37:07.828Z,97641.96
2018-03-22T01:39:38.904Z,97638.13
2018-03-22T01:42:07.706Z,97640.25
2018-03-22T01:44:36.107Z,97631.92
2018-03-22T01:47:04.518Z,97633.06
2018-03-22T01:49:32.912Z,97634.94
2018-03-22T01:52:04.449Z,97622.39
2018-03-22T01:54:33.128Z,97620.20
2018-03-22T01:57:01.426Z,97618.59
2018-03-22T01:59:29.776Z,97622.59
2018-03-22T02:01:58.314Z,97620.00
2018-03-22T02:04:29.224Z,97610.88
2018-03-22T02:06:57.656Z,97603.39
2018-03-22T02:09:26.101Z,97601.20
2018-03-22T02:11:54.520Z,97598.86
2018-03-22T02:14:23.100Z,97599.16
2018-03-22T02:16:59.009Z,97595.40
2018-03-22T02:19:27.326Z,97599.05
2018-03-22T02:21:55.689Z,97600.16
2018-03-22T02:24:24.015Z,97598.05
2018-03-22T02:26:52.404Z,97599.28
2018-03-22T02:29:20.723Z,97595.89
2018-03-22T02:31:49.223Z,97597.00
2018-03-22T02:34:17.710Z,97600.59
2018-03-22T02:36:47.623Z,97597.67
2018-03-22T02:39:16.116Z,97598.94
2018-03-22T02:41:46.011Z,97591.06
2018-03-22T02:44:14.388Z,97597.56
2018-03-22T02:46:46.759Z,97594.64
2018-03-22T02:49:15.362Z,97593.23
2018-03-22T02:51:43.723Z,97588.06
2018-03-22T02:54:16.811Z,97590.69
2018-03-22T02:56:45.398Z,97588.97
2018-03-22T02:59:14.493Z,97585.41
2018-03-22T03:01:44.713Z,97583.09
2018-03-22T03:04:13.209Z,97585.57
2018-03-22T03:06:41.595Z,97573.16
2018-03-22T03:09:09.966Z,97572.73
2018-03-22T03:11:38.349Z,97569.87
2018-03-22T03:14:06.824Z,97566.95
2018-03-22T03:16:37.454Z,97562.27
2018-03-22T03:19:06.422Z,97562.59
2018-03-22T03:21:35.505Z,97555.75
2018-03-22T03:24:03.907Z,97548.57
2018-03-22T03:26:32.442Z,97548.57
2018-03-22T03:29:01.546Z,97546.79
2018-03-22T03:31:29.888Z,97533.88
2018-03-22T03:34:01.113Z,97539.17
2018-03-22T03:36:29.610Z,97527.91
2018-03-22T03:38:58.125Z,97533.23
2018-03-22T03:41:27.353Z,97523.84
2018-03-22T03:43:55.962Z,97525.45
2018-03-22T03:46:26.080Z,97524.19
2018-03-22T03:48:56.043Z,97521.70
2018-03-22T03:51:24.469Z,97512.95
2018-03-22T03:53:54.574Z,97524.37
2018-03-22T03:56:22.967Z,97520.82
2018-03-22T03:58:52.081Z,97525.78
2018-03-22T04:01:20.506Z,97518.05
2018-03-22T04:03:51.658Z,97513.48
2018-03-22T04:06:20.748Z,97504.23
2018-03-22T04:08:49.896Z,97499.70
2018-03-22T04:11:18.234Z,97501.41
2018-03-22T04:13:46.615Z,97495.04
2018-03-22T04:16:15.207Z,97492.16
2018-03-22T04:18:44.711Z,97487.19
2018-03-22T04:21:13.316Z,97489.44
2018-03-22T04:23:41.901Z,97494.39
2018-03-22T04:26:12.164Z,97495.17
2018-03-22T04:28:41.426Z,97490.10
2018-03-22T04:31:13.854Z,97490.94
2018-03-22T04:33:42.392Z,97483.56
2018-03-22T04:36:11.271Z,97484.74
2018-03-22T04:38:39.647Z,97488.06
2018-03-22T04:41:08.733Z,97488.46
2018-03-22T04:43:37.272Z,97481.36
2018-03-22T04:46:05.772Z,97480.45
2018-03-22T04:48:34.306Z,97475.86
2018-03-22T04:51:05.478Z,97475.95
2018-03-22T04:53:34.117Z,97471.33
2018-03-22T04:56:02.612Z,97472.40
2018-03-22T04:58:31.206Z,97469.81
2018-03-22T05:00:59.680Z,97465.83
2018-03-22T05:03:28.458Z,97461.23
2018-03-22T05:05:57.028Z,97463.45
2018-03-22T05:08:27.604Z,97458.16
2018-03-22T05:10:58.822Z,97453.43
2018-03-22T05:13:30.290Z,97452.45
2018-03-22T05:16:00.603Z,97447.86
2018-03-22T05:18:33.217Z,97449.17
2018-03-22T05:21:03.359Z,97443.34
2018-03-22T05:23:33.476Z,97444.91
2018-03-22T05:26:01.966Z,97440.69
2018-03-22T05:28:31.283Z,97435.83
2018-03-22T05:31:00.412Z,97435.83
2018-03-22T05:33:28.896Z,97431.84
2018-03-22T05:35:59.399Z,97432.81
2018-03-22T05:38:32.815Z,97427.95
2018-03-22T05:41:03.020Z,97435.50
2018-03-22T05:43:32.745Z,97436.37
2018-03-22T05:46:02.970Z,97428.66
2018-03-22T05:48:31.501Z,97430.47
2018-03-22T05:51:01.677Z,97421.25
2018-03-22T05:53:30.089Z,97423.02
2018-03-22T05:55:58.607Z,97420.51
2018-03-22T05:58:26.958Z,97426.01
2018-03-22T06:00:59.000Z,97430.53
2018-03-22T06:03:27.629Z,97428.15
2018-03-22T06:05:56.018Z,97428.72
2018-03-22T06:08:27.520Z,97424.89
2018-03-22T06:10:55.955Z,97425.63
2018-03-22T06:13:24.423Z,97421.86
2018-03-22T06:15:52.809Z,97424.10
2018-03-22T06:18:23.025Z,97422.92
2018-03-22T06:20:56.417Z,97421.95
2018-03-22T06:23:24.895Z,97427.58
2018-03-22T06:25:53.557Z,97426.13
2018-03-22T06:28:22.068Z,97427.91
2018-03-22T06:30:50.603Z,97422.09
2018-03-22T06:33:19.083Z,97418.78
2018-03-22T06:35:49.239Z,97415.88
2018-03-22T06:38:17.670Z,97409.63
2018-03-22T06:40:46.168Z,97405.83
2018-03-22T06:43:14.549Z,97409.28
2018-03-22T06:45:45.121Z,97410.27
2018-03-22T06:48:15.247Z,97408.47
2018-03-22T06:50:47.179Z,97404.75
2018-03-22T06:53:15.608Z,97398.98
2018-03-22T06:55:44.190Z,97388.02
2018-03-22T06:58:12.621Z,97384.79
2018-03-22T07:00:41.003Z,97388.39
2018-03-22T07:03:09.322Z,97392.87
2018-03-22T07:05:37.677Z,97382.23
2018-03-22T07:08:06.931Z,97384.96
2018-03-22T07:10:36.867Z,97371.39
2018-03-22T07:13:05.213Z,97376.90
2018-03-22T07:15:33.523Z,97370.23
2018-03-22T07:18:01.940Z,97365.30
2018-03-22T07:20:30.419Z,97369.13
2018-03-22T07:22:58.819Z,97361.75
2018-03-22T07:25:27.273Z,97359.73
2018-03-22T07:27:55.612Z,97356.48
2018-03-22T07:30:24.172Z,97353.45
2018-03-22T07:32:54.265Z,97359.22
2018-03-22T07:35:22.807Z,97348.37
2018-03-22T07:37:53.361Z,97342.81
2018-03-22T07:40:21.776Z,97342.06
2018-03-22T07:42:55.825Z,97341.21
2018-03-22T07:45:26.299Z,97333.43
2018-03-22T07:47:54.791Z,97343.20
2018-03-22T07:50:23.101Z,97336.91
2018-03-22T07:52:51.545Z,97334.80
2018-03-22T07:55:19.968Z,97329.20
2018-03-22T07:57:50.384Z,97328.23
2018-03-22T08:00:20.913Z,97329.04
2018-03-22T08:02:49.334Z,97328.11
2018-03-22T08:05:17.781Z,97319.88
2018-03-22T08:07:47.890Z,97318.68
2018-03-22T08:10:16.271Z,97316.20
2018-03-22T08:12:44.657Z,97317.29
2018-03-22T08:15:13.068Z,97316.77
2018-03-22T08:17:41.613Z,97312.94
2018-03-22T08:20:10.217Z,97308.41
2018-03-22T08:22:38.601Z,97311.16
2018-03-22T08:25:06.941Z,97313.91
2018-03-22T08:27:35.330Z,97310.78
2018-03-22T08:30:03.871Z,97313.88
2018-03-22T08:32:32.321Z,97308.07
2018-03-22T08:35:00.709Z,97304.60
2018-03-22T08:37:29.025Z,97301.20
2018-03-22T08:39:57.460Z,97306.25
2018-03-22T08:42:25.840Z,97289.00
2018-03-22T08:44:54.270Z,97287.72
2018-03-22T08:49:52.264Z,97294.81
2018-03-22T08:54:50.327Z,97285.76
2018-03-22T08:57:20.736Z,97278.85
2018-03-22T08:59:49.803Z,97279.23
2018-03-22T09:02:18.271Z,97274.50
2018-03-22T09:04:46.576Z,97270.81
2018-03-22T09:07:15.712Z,97271.53
2018-03-22T09:09:44.070Z,97270.03
2018-03-22T09:12:12.574Z,97255.47
2018-03-22T09:14:41.139Z,97259.97
2018-03-22T09:17:12.286Z,97254.77
2018-03-22T09:19:42.780Z,97242.96
2018-03-22T09:22:13.524Z,97241.94
2018-03-22T09:24:42.050Z,97241.73
2018-03-22T09:27:10.339Z,97239.38
2018-03-22T09:29:38.648Z,97237.66
2018-03-22T09:32:06.960Z,97232.81
2018-03-22T09:34:35.258Z,97230.16
2018-03-22T09:37:03.620Z,97225.55
2018-03-22T09:39:32.049Z,97222.34
2018-03-22T09:42:00.365Z,97214.38
2018-03-22T09:44:28.686Z,97204.69
2018-03-22T09:46:57.092Z,97210.66
2018-03-22T09:49:25.636Z,97207.94
2018-03-22T09:51:53.991Z,97205.80
2018-03-22T09:54:22.331Z,97201.19
2018-03-22T09:56:50.839Z,97197.47
2018-03-22T09:59:19.281Z,97192.52
2018-03-22T10:01:47.829Z,97189.63
2018-03-22T10:04:17.136Z,97180.95
2018-03-22T10:06:45.566Z,97180.79
2018-03-22T10:09:14.104Z,97174.85
2018-03-22T10:11:43.507Z,97166.19
2018-03-22T10:14:11.882Z,97156.45
2018-03-22T10:16:40.982Z,97154.48
2018-03-22T10:19:09.326Z,97148.87
2018-03-22T10:21:39.225Z,97144.06
2018-03-22T10:24:09.909Z,97135.91
2018-03-22T10:26:39.999Z,97134.16
2018-03-22T10:29:08.445Z,97133.35
2018-03-22T10:31:37.907Z,97124.36
2018-03-22T10:34:09.117Z,97111.28
2018-03-22T10:36:37.588Z,97108.37
2018-03-22T10:39:06.015Z,97113.16
2018-03-22T10:41:34.612Z,97101.16
2018-03-22T10:44:02.882Z,97103.94
2018-03-22T10:46:31.206Z,97101.75
2018-03-22T10:49:01.387Z,97096.82
2018-03-22T10:51:29.765Z,97094.02
2018-03-22T10:53:58.335Z,97090.93
2018-03-22T10:56:26.657Z,97085.74
2018-03-22T10:58:55.661Z,97080.67
2018-03-22T11:01:29.752Z,97074.43
2018-03-22T11:03:58.423Z,97061.59
2018-03-22T11:06:27.566Z,97055.36
2018-03-22T11:08:55.906Z,97062.43
2018-03-22T11:11:24.258Z,97058.32
2018-03-22T11:13:52.575Z,97060.05
2018-03-22T11:16:20.931Z,97052.23
2018-03-22T11:18:49.320Z,97044.62
2018-03-22T11:21:17.684Z,97047.60
2018-03-22T11:23:46.025Z,97041.02
2018-03-22T11:26:14.408Z,97039.23
2018-03-22T11:28:44.577Z,97041.40
2018-03-22T11:31:14.547Z,97032.39
2018-03-22T11:33:43.019Z,97031.83
2018-03-22T11:36:12.044Z,97023.77
2018-03-22T11:38:40.353Z,97028.48
2018-03-22T11:41:08.741Z,97013.80
2018-03-22T11:43:37.054Z,97010.12
2018-03-22T11:46:05.391Z,97010.38
2018-03-22T11:48:33.847Z,97007.00
2018-03-22T11:51:02.121Z,97001.72
2018-03-22T11:53:33.388Z,96993.73
2018-03-22T11:56:05.669Z,96996.81
2018-03-22T11:58:36.506Z,96980.27
2018-03-22T12:01:04.970Z,96971.86
2018-03-22T12:03:33.316Z,96970.17
2018-03-22T12:06:01.627Z,96966.59
2018-03-22T12:08:30.118Z,96962.45
2018-03-22T12:10:58.469Z,96958.70
2018-03-22T12:13:27.802Z,96954.66
2018-03-22T12:15:58.967Z,96947.45
2018-03-22T12:18:27.312Z,96948.35
2018-03-22T12:20:56.725Z,96938.53
2018-03-22T12:23:25.035Z,96932.80
2018-03-22T12:25:53.385Z,96931.58
2018-03-22T12:28:21.808Z,96930.83
2018-03-22T12:30:50.121Z,96925.48
2018-03-22T12:33:19.563Z,96922.69
2018-03-22T12:35:48.634Z,96915.55
2018-03-22T12:38:17.000Z,96901.03
2018-03-22T12:40:46.123Z,96899.09
2018-03-22T12:43:14.604Z,96896.25
2018-03-22T12:45:42.922Z,96897.92
2018-03-22T12:48:14.067Z,96889.91
2018-03-22T12:50:42.458Z,96893.14
2018-03-22T12:53:13.406Z,96883.90
2018-03-22T12:55:41.793Z,96890.43
2018-03-22T12:58:10.145Z,96884.10
2018-03-22T13:00:40.294Z,96883.56
2018-03-22T13:03:09.904Z,96886.63
2018-03-22T13:05:39.961Z,96874.95
2018-03-22T13:08:08.744Z,96871.89
2018-03-22T13:10:37.195Z,96864.00
2018-03-22T13:13:05.591Z,96860.70
2018-03-22T13:15:36.685Z,96856.34
2018-03-22T13:18:06.683Z,96857.44
2018-03-22T13:20:35.064Z,96850.28
2018-03-22T13:23:03.495Z,96844.97
2018-03-22T13:25:34.529Z,96838.95
2018-03-22T13:28:04.240Z,96826.45
2018-03-22T13:30:34.151Z,96822.24
2018-03-22T13:33:02.574Z,96826.41
2018-03-22T13:35:30.991Z,96820.19
2018-03-22T13:37:59.371Z,96815.55
2018-03-22T13:40:28.591Z,96820.77
2018-03-22T13:42:57.687Z,96817.77
2018-03-22T13:45:27.797Z,96815.83
2018-03-22T13:47:56.157Z,96809.17
2018-03-22T13:50:24.702Z,96804.20
2018-03-22T13:52:53.759Z,96794.57
2018-03-22T13:55:22.288Z,96803.61
2018-03-22T13:57:51.357Z,96795.70
2018-03-22T14:00:20.990Z,96794.50
2018-03-22T14:02:49.365Z,96788.51
2018-03-22T14:05:17.722Z,96780.35
2018-03-22T14:07:46.048Z,96780.09
2018-03-22T14:10:14.350Z,96770.71
2018-03-22T14:12:42.995Z,96764.13
2018-03-22T14:15:11.341Z,96765.32
2018-03-22T14:17:39.750Z,96759.29
2018-03-22T14:20:11.423Z,96752.39
2018-03-22T14:22:40.927Z,96752.89
2018-03-22T14:25:09.248Z,96751.14
2018-03-22T14:27:37.528Z,96742.12
2018-03-22T14:30:08.695Z,96742.12
2018-03-22T14:32:38.690Z,96744.53
2018-03-22T14:35:07.157Z,96735.52
2018-03-22T14:37:35.619Z,96737.70
2018-03-22T14:40:05.866Z,96744.59
2018-03-22T14:42:36.024Z,96741.33
2018-03-22T14:45:04.515Z,96735.94
2018-03-22T14:47:32.837Z,96731.56
2018-03-22T14:50:01.282Z,96727.00
2018-03-22T14:52:29.674Z,96720.35
2018-03-22T14:54:59.207Z,96719.39
2018-03-22T14:57:27.543Z,96720.50
2018-03-22T14:59:57.605Z,96727.83
2018-03-22T15:02:26.077Z,96719.34
2018-03-22T15:04:54.405Z,96724.34
2018-03-22T15:07:22.764Z,96719.31
2018-03-22T15:09:52.116Z,96712.78
2018-03-22T15:12:20.446Z,96715.69
2018-03-22T15:14:48.776Z,96726.45
2018-03-22T15:17:19.744Z,96750.53
2018-03-22T15:19:48.248Z,96742.05
2018-03-22T15:22:18.242Z,96737.22
2018-03-22T15:24:46.615Z,96728.81
2018-03-22T15:27:14.937Z,96724.70
2018-03-22T15:29:45.370Z,96712.26
2018-03-22T15:32:13.727Z,96709.39
2018-03-22T15:34:43.696Z,96704.72
2018-03-22T15:46:57.190Z,96691.33
2018-03-22T15:49:25.642Z,96682.86
2018-03-22T15:51:53.952Z,96682.20
2018-03-22T15:54:23.283Z,96688.38
2018-03-22T15:56:51.628Z,96684.64
2018-03-22T15:59:20.717Z,96683.73
2018-03-22T16:01:49.059Z,96674.91
2018-03-22T16:04:19.896Z,96677.73
2018-03-22T16:06:48.316Z,96666.05
2018-03-22T16:09:18.347Z,96677.73
2018-03-22T16:11:46.715Z,96675.98
2018-03-22T16:14:15.302Z,96682.89
2018-03-22T16:16:43.657Z,96686.58
2018-03-22T16:19:11.997Z,96681.80
2018-03-22T16:21:40.368Z,96688.03
2018-03-22T16:24:08.850Z,96686.66
2018-03-22T16:26:40.080Z,96687.77
2018-03-22T16:29:10.192Z,96687.68
2018-03-22T16:31:39.597Z,96684.07
2018-03-22T16:34:08.162Z,96697.05
2018-03-22T16:36:36.593Z,96702.03
2018-03-22T16:39:05.082Z,96699.23
2018-03-22T16:41:33.759Z,96702.41
2018-03-22T16:44:02.216Z,96708.10
2018-03-22T16:46:31.638Z,96707.36
2018-03-22T16:49:01.023Z,96704.95
2018-03-22T16:51:31.050Z,96710.03
2018-03-22T16:53:59.480Z,96710.00
2018-03-22T16:56:27.810Z,96710.73
2018-03-22T16:58:56.176Z,96719.11
2018-03-22T17:01:24.665Z,96712.00
2018-03-22T17:03:53.787Z,96721.73
2018-03-22T17:06:24.637Z,96719.01
2018-03-22T17:08:53.421Z,96721.36
2018-03-22T17:11:23.058Z,96724.06
2018-03-22T17:13:51.507Z,96728.11
2018-03-22T17:16:21.528Z,96726.77
2018-03-22T17:18:51.588Z,96728.36
2018-03-22T17:21:22.618Z,96731.57
2018-03-22T17:23:52.677Z,96737.06
2018-03-22T17:26:21.525Z,96732.28
2018-03-22T17:28:49.919Z,96736.77
2018-03-22T17:31:18.275Z,96735.76
2018-03-22T17:33:48.853Z,96740.35
2018-03-22T17:36:17.406Z,96739.23
2018-03-22T17:38:46.691Z,96742.94
2018-03-22T17:41:16.227Z,96737.88
2018-03-22T17:43:44.648Z,96742.78
2018-03-22T17:46:13.195Z,96739.64
2018-03-22T17:48:41.674Z,96731.55
2018-03-22T17:51:10.120Z,96733.09
2018-03-22T17:53:39.872Z,96736.07
2018-03-22T17:56:10.213Z,96731.68
2018-03-22T17:58:38.622Z,96730.77
2018-03-22T18:01:07.270Z,96730.22
2018-03-22T18:03:37.419Z,96732.02
2018-03-22T18:06:08.016Z,96731.44
2018-03-22T18:08:38.979Z,96729.58
2018-03-22T18:11:08.307Z,96726.06
2018-03-22T18:13:36.890Z,96731.50
2018-03-22T18:16:06.260Z,96728.17
2018-03-22T18:18:34.668Z,96728.17
2018-03-22T18:21:03.433Z,96722.55
2018-03-22T18:23:33.505Z,96725.38
2018-03-22T18:26:01.889Z,96725.80
2018-03-22T18:28:32.399Z,96733.20
2018-03-22T18:31:01.691Z,96723.75
2018-03-22T18:33:30.251Z,96719.56
2018-03-22T18:35:58.652Z,96717.78
2018-03-22T18:38:27.061Z,96713.63
2018-03-22T18:40:57.600Z,96713.70
2018-03-22T18:43:26.001Z,96711.20
2018-03-22T18:45:56.297Z,96706.20
2018-03-22T18:48:27.199Z,96719.56
2018-03-22T18:50:56.539Z,96712.50
2018-03-22T18:53:25.821Z,96714.50
2018-03-22T18:55:56.813Z,96723.25
2018-03-22T18:58:25.368Z,96722.44
2018-03-22T19:00:53.766Z,96718.47
2018-03-22T19:03:22.256Z,96717.44
2018-03-22T19:05:50.791Z,96718.92
2018-03-22T19:08:19.309Z,96720.16
2018-03-22T19:10:48.404Z,96721.36
2018-03-22T19:13:16.852Z,96711.84
2018-03-22T19:15:46.316Z,96711.79
2018-03-22T19:18:14.772Z,96706.63
2018-03-22T19:20:43.540Z,96706.69
2018-03-22T19:23:14.618Z,96712.95
2018-03-22T19:25:44.881Z,96708.38
2018-03-22T19:28:15.791Z,96711.75
2018-03-22T19:30:44.189Z,96712.23
2018-03-22T19:33:14.355Z,96708.16
2018-03-22T19:35:42.789Z,96701.14
2018-03-22T19:38:11.460Z,96696.92
2018-03-22T19:40:39.925Z,96698.06
2018-03-22T19:43:10.476Z,96721.15
2018-03-22T19:45:41.228Z,96705.71
2018-03-22T20:01:12.581Z,96687.91
2018-03-22T20:03:42.822Z,96690.73
2018-03-22T20:06:11.266Z,96685.35
2018-03-22T20:08:39.954Z,96678.72
2018-03-22T20:11:08.453Z,96676.22
2018-03-22T20:13:38.133Z,96676.59
2018-03-22T20:16:06.605Z,96669.92
2018-03-22T20:18:36.011Z,96674.42
2018-03-22T20:21:04.710Z,96675.24
2018-03-22T20:23:35.745Z,96682.30
2018-03-22T20:26:04.314Z,96686.59
2018-03-22T20:28:34.284Z,96677.70
2018-03-22T20:31:04.365Z,96678.02
2018-03-22T20:33:35.725Z,96672.63
2018-03-22T20:36:04.101Z,96672.63
2018-03-22T20:38:32.493Z,96677.10
2018-03-22T20:41:01.032Z,96674.98
2018-03-22T20:43:29.417Z,96680.72
2018-03-22T20:45:58.180Z,96678.13
2018-03-22T20:48:28.409Z,96676.11
2018-03-22T20:50:56.886Z,96666.08
2018-03-22T20:53:25.461Z,96667.80
2018-03-22T20:55:53.908Z,96661.14
2018-03-22T20:58:24.593Z,96653.59
2018-03-22T21:00:54.113Z,96660.20
2018-03-22T21:03:22.684Z,96653.91
2018-03-22T21:05:51.253Z,96653.91
2018-03-22T21:08:19.744Z,96651.03
2018-03-22T21:10:50.954Z,96648.52
2018-03-22T21:13:20.370Z,96647.27
2018-03-22T21:15:50.522Z,96645.27
2018-03-22T21:18:19.600Z,96641.91
2018-03-22T21:20:48.155Z,96636.09
2018-03-22T21:23:18.235Z,96632.69
2018-03-22T21:25:47.018Z,96632.77
2018-03-22T21:28:15.808Z,96631.09
2018-03-22T21:30:46.234Z,96635.66
2018-03-22T21:33:16.298Z,96623.98
2018-03-22T21:35:44.665Z,96622.25
2018-03-22T21:38:13.313Z,96625.17
2018-03-22T21:40:43.644Z,96623.13
2018-03-22T21:43:12.190Z,96625.29
2018-03-22T21:45:40.851Z,96622.41
2018-03-22T21:48:09.346Z,96617.47
2018-03-22T21:50:50.247Z,96611.27
2018-03-22T21:53:20.507Z,96619.10
2018-03-22T21:55:51.574Z,96612.84
2018-03-22T21:58:20.404Z,96604.05
2018-03-22T22:00:48.754Z,96599.49
2018-03-22T22:03:18.653Z,96595.64
2018-03-22T22:05:47.213Z,96597.38
2018-03-22T22:08:16.303Z,96596.99
2018-03-22T22:10:44.846Z,96582.88
2018-03-22T22:13:15.052Z,96579.19
2018-03-22T22:15:43.479Z,96578.84
2018-03-22T22:18:11.802Z,96574.23
2018-03-22T22:20:40.202Z,96576.34
2018-03-22T22:23:08.555Z,96568.42
2018-03-22T22:25:37.747Z,96569.68
2018-03-22T22:28:06.102Z,96564.28
2018-03-22T22:30:37.494Z,96559.19
2018-03-22T22:33:06.061Z,96552.46
2018-03-22T22:35:34.387Z,96553.32
2018-03-22T22:38:02.744Z,96547.48
2018-03-22T22:40:31.062Z,96547.09
2018-03-22T22:42:59.490Z,96549.05
2018-03-22T22:45:27.952Z,96547.80
2018-03-22T22:47:56.388Z,96548.67
2018-03-22T22:50:26.325Z,96540.45
2018-03-22T22:52:56.598Z,96541.17
2018-03-22T22:55:25.971Z,96543.67
2018-03-22T22:57:54.339Z,96536.95
2018-03-22T23:00:22.664Z,96538.20
2018-03-22T23:02:51.169Z,96531.89
2018-03-22T23:05:19.533Z,96532.37
2018-03-22T23:07:48.168Z,96528.63
2018-03-22T23:10:16.510Z,96527.77
2018-03-22T23:12:44.888Z,96522.77
2018-03-22T23:15:13.345Z,96526.56
2018-03-22T23:17:43.944Z,96510.23
2018-03-22T23:20:12.301Z,96515.17
2018-03-22T23:22:40.634Z,96508.83
2018-03-22T23:25:09.078Z,96505.13
2018-03-22T23:27:38.565Z,96498.55
2018-03-22T23:30:08.707Z,96496.48
2018-03-22T23:32:37.221Z,96496.91
2018-03-22T23:35:05.727Z,96495.29
2018-03-22T23:37:34.142Z,96490.30
2018-03-22T23:40:02.592Z,96486.60
2018-03-22T23:42:30.934Z,96489.48
2018-03-22T23:44:59.225Z,96490.62
2018-03-22T23:47:27.550Z,96482.33
2018-03-22T23:49:55.870Z,96482.33
2018-03-22T23:52:24.239Z,96482.70
2018-03-22T23:54:52.517Z,96482.70
2018-03-22T23:57:20.873Z,96486.44
2018-03-22T23:59:49.160Z,96483.08
